CheckWX is a tool to help pilots better visualize weather data.  It is not intended as a substitute for an official pre-flight weather briefing.

02:48:35 UTC

KBBP METAR
Marlboro County Jetport - H E Avent Field Airport
Bennettsville, South Carolina, USA
Current

34 mins ago

KBBP 230215Z AUTO 00000KT 10SM CLR 11/02 A2993 RMK AO2
Observed
Mar-23 @ 02:15 UTC
Visibility
10 SM
Flight Rules
VFR
Cloud Levels
  • Clear skies
Temperature
11°C / 52°F
Dewpoint
C / 36°F
Humidity
54%
Altimeter
29.93" Hg
Pressure
1013.52 hPa
Previous

54 mins ago

KBBP 230155Z AUTO 00000KT 10SM CLR 13/01 A2992 RMK AO2
Observed
Mar-23 @ 01:55 UTC
Visibility
10 SM
Flight Rules
VFR
Cloud Levels
  • Clear skies
Temperature
13°C / 55°F
Dewpoint
C / 34°F
Humidity
44%
Altimeter
29.92" Hg
Pressure
1013.22 hPa
Previous

1 hour ago

KBBP 230135Z AUTO 29003KT 10SM CLR 13/02 A2992 RMK AO2
Observed
Mar-23 @ 01:35 UTC
Wind
  • 290° at 3 KTS
Visibility
10 SM
Flight Rules
VFR
Cloud Levels
  • Clear skies
Temperature
13°C / 55°F
Dewpoint
C / 36°F
Humidity
47%
Altimeter
29.92" Hg
Pressure
1013.22 hPa